sensor_id;sensor_type;location;lat;lon;timestamp;P1;durP1;ratioP1;P2;durP2;ratioP2
36925;SDS011;22842;48.610;11.612;2022-12-18T00:01:17;89.32;;;32.25;;
36925;SDS011;22842;48.610;11.612;2022-12-18T00:03:45;109.55;;;34.75;;
36925;SDS011;22842;48.610;11.612;2022-12-18T00:06:14;100.90;;;34.47;;
36925;SDS011;22842;48.610;11.612;2022-12-18T00:08:42;84.43;;;32.03;;
36925;SDS011;22842;48.610;11.612;2022-12-18T00:11:14;97.15;;;33.95;;
36925;SDS011;22842;48.610;11.612;2022-12-18T00:13:43;95.63;;;34.72;;
36925;SDS011;22842;48.610;11.612;2022-12-18T00:16:11;103.95;;;34.85;;
36925;SDS011;22842;48.610;11.612;2022-12-18T00:18:39;101.88;;;35.00;;
36925;SDS011;22842;48.610;11.612;2022-12-18T00:21:08;110.07;;;37.22;;
36925;SDS011;22842;48.610;11.612;2022-12-18T00:23:36;92.20;;;32.45;;
36925;SDS011;22842;48.610;11.612;2022-12-18T00:26:06;87.20;;;30.48;;
36925;SDS011;22842;48.610;11.612;2022-12-18T00:28:34;84.13;;;29.83;;
36925;SDS011;22842;48.610;11.612;2022-12-18T00:31:06;88.75;;;30.98;;
36925;SDS011;22842;48.610;11.612;2022-12-18T00:33:34;82.88;;;29.70;;
36925;SDS011;22842;48.610;11.612;2022-12-18T00:36:02;90.65;;;31.60;;
36925;SDS011;22842;48.610;11.612;2022-12-18T00:38:30;88.18;;;31.88;;
36925;SDS011;22842;48.610;11.612;2022-12-18T00:40:58;87.25;;;33.75;;
36925;SDS011;22842;48.610;11.612;2022-12-18T00:43:26;95.80;;;32.17;;
36925;SDS011;22842;48.610;11.612;2022-12-18T00:45:54;87.68;;;30.13;;
36925;SDS011;22842;48.610;11.612;2022-12-18T00:48:22;85.22;;;30.55;;
36925;SDS011;22842;48.610;11.612;2022-12-18T00:50:49;84.15;;;31.15;;
36925;SDS011;22842;48.610;11.612;2022-12-18T00:53:17;92.60;;;30.63;;
36925;SDS011;22842;48.610;11.612;2022-12-18T00:55:45;76.43;;;28.77;;
36925;SDS011;22842;48.610;11.612;2022-12-18T00:58:13;84.95;;;31.70;;
36925;SDS011;22842;48.610;11.612;2022-12-18T01:00:41;80.38;;;30.00;;
36925;SDS011;22842;48.610;11.612;2022-12-18T01:03:09;74.03;;;27.83;;
36925;SDS011;22842;48.610;11.612;2022-12-18T01:05:40;75.00;;;27.40;;
36925;SDS011;22842;48.610;11.612;2022-12-18T01:08:08;66.32;;;25.77;;
36925;SDS011;22842;48.610;11.612;2022-12-18T01:10:35;61.85;;;23.08;;
36925;SDS011;22842;48.610;11.612;2022-12-18T01:13:03;70.45;;;24.65;;
36925;SDS011;22842;48.610;11.612;2022-12-18T01:15:30;74.97;;;28.00;;
36925;SDS011;22842;48.610;11.612;2022-12-18T01:17:58;70.72;;;23.50;;
36925;SDS011;22842;48.610;11.612;2022-12-18T01:20:26;73.15;;;24.65;;
36925;SDS011;22842;48.610;11.612;2022-12-18T01:22:53;69.00;;;25.33;;
36925;SDS011;22842;48.610;11.612;2022-12-18T01:25:21;74.65;;;26.15;;
36925;SDS011;22842;48.610;11.612;2022-12-18T01:27:49;64.80;;;23.27;;
36925;SDS011;22842;48.610;11.612;2022-12-18T01:30:16;62.53;;;23.30;;
36925;SDS011;22842;48.610;11.612;2022-12-18T01:32:44;66.53;;;23.23;;
36925;SDS011;22842;48.610;11.612;2022-12-18T01:35:11;70.90;;;24.88;;
36925;SDS011;22842;48.610;11.612;2022-12-18T01:37:39;67.32;;;23.80;;
36925;SDS011;22842;48.610;11.612;2022-12-18T01:40:06;69.13;;;24.73;;
36925;SDS011;22842;48.610;11.612;2022-12-18T01:42:34;65.80;;;24.08;;
36925;SDS011;22842;48.610;11.612;2022-12-18T01:47:43;70.80;;;32.13;;
36925;SDS011;22842;48.610;11.612;2022-12-18T01:50:28;55.42;;;22.05;;
36925;SDS011;22842;48.610;11.612;2022-12-18T01:53:14;62.15;;;22.27;;
36925;SDS011;22842;48.610;11.612;2022-12-18T01:55:46;56.28;;;22.13;;
36925;SDS011;22842;48.610;11.612;2022-12-18T01:58:15;66.47;;;23.08;;
36925;SDS011;22842;48.610;11.612;2022-12-18T02:00:42;57.63;;;20.25;;
36925;SDS011;22842;48.610;11.612;2022-12-18T02:03:11;56.58;;;19.08;;
36925;SDS011;22842;48.610;11.612;2022-12-18T02:08:19;64.80;;;21.27;;
36925;SDS011;22842;48.610;11.612;2022-12-18T02:16:10;60.10;;;21.95;;
36925;SDS011;22842;48.610;11.612;2022-12-18T02:18:44;77.13;;;29.60;;
36925;SDS011;22842;48.610;11.612;2022-12-18T02:21:15;54.92;;;20.65;;
36925;SDS011;22842;48.610;11.612;2022-12-18T02:28:51;62.92;;;21.85;;
36925;SDS011;22842;48.610;11.612;2022-12-18T02:31:21;62.72;;;21.30;;
36925;SDS011;22842;48.610;11.612;2022-12-18T02:33:51;63.85;;;22.00;;
36925;SDS011;22842;48.610;11.612;2022-12-18T02:36:20;61.03;;;22.10;;
36925;SDS011;22842;48.610;11.612;2022-12-18T02:38:49;66.28;;;23.05;;
36925;SDS011;22842;48.610;11.612;2022-12-18T02:41:18;65.13;;;22.38;;
36925;SDS011;22842;48.610;11.612;2022-12-18T02:43:49;65.80;;;22.45;;
36925;SDS011;22842;48.610;11.612;2022-12-18T02:46:42;63.25;;;24.90;;
36925;SDS011;22842;48.610;11.612;2022-12-18T02:49:12;54.72;;;20.90;;
36925;SDS011;22842;48.610;11.612;2022-12-18T02:54:16;69.97;;;24.60;;
36925;SDS011;22842;48.610;11.612;2022-12-18T02:56:51;67.30;;;23.85;;
36925;SDS011;22842;48.610;11.612;2022-12-18T02:59:26;69.32;;;23.48;;
36925;SDS011;22842;48.610;11.612;2022-12-18T03:02:09;61.72;;;23.13;;
36925;SDS011;22842;48.610;11.612;2022-12-18T03:04:41;61.03;;;24.77;;
36925;SDS011;22842;48.610;11.612;2022-12-18T03:07:12;68.18;;;22.63;;
36925;SDS011;22842;48.610;11.612;2022-12-18T03:09:43;69.13;;;25.73;;
36925;SDS011;22842;48.610;11.612;2022-12-18T03:14:59;61.10;;;23.80;;
36925;SDS011;22842;48.610;11.612;2022-12-18T03:17:28;64.47;;;22.65;;
36925;SDS011;22842;48.610;11.612;2022-12-18T03:19:58;62.22;;;23.02;;
36925;SDS011;22842;48.610;11.612;2022-12-18T03:22:27;63.55;;;23.10;;
36925;SDS011;22842;48.610;11.612;2022-12-18T03:24:57;69.57;;;23.63;;
36925;SDS011;22842;48.610;11.612;2022-12-18T03:27:25;64.85;;;24.83;;
36925;SDS011;22842;48.610;11.612;2022-12-18T03:30:12;63.58;;;23.33;;
36925;SDS011;22842;48.610;11.612;2022-12-18T03:35:08;69.20;;;23.02;;
36925;SDS011;22842;48.610;11.612;2022-12-18T03:37:36;62.95;;;22.65;;
36925;SDS011;22842;48.610;11.612;2022-12-18T03:40:04;60.22;;;22.33;;
36925;SDS011;22842;48.610;11.612;2022-12-18T03:42:56;62.22;;;22.75;;
36925;SDS011;22842;48.610;11.612;2022-12-18T03:55:49;62.95;;;21.58;;
36925;SDS011;22842;48.610;11.612;2022-12-18T03:58:23;61.00;;;20.50;;
36925;SDS011;22842;48.610;11.612;2022-12-18T04:00:52;54.95;;;21.25;;
36925;SDS011;22842;48.610;11.612;2022-12-18T04:03:21;63.50;;;21.63;;
36925;SDS011;22842;48.610;11.612;2022-12-18T04:05:52;50.80;;;18.83;;
36925;SDS011;22842;48.610;11.612;2022-12-18T04:08:21;54.83;;;21.13;;
36925;SDS011;22842;48.610;11.612;2022-12-18T04:10:49;58.80;;;21.50;;
36925;SDS011;22842;48.610;11.612;2022-12-18T04:13:30;60.67;;;22.40;;
36925;SDS011;22842;48.610;11.612;2022-12-18T04:15:59;59.92;;;22.92;;
36925;SDS011;22842;48.610;11.612;2022-12-18T04:18:27;57.83;;;22.58;;
36925;SDS011;22842;48.610;11.612;2022-12-18T04:20:55;63.80;;;24.98;;
36925;SDS011;22842;48.610;11.612;2022-12-18T04:23:22;60.70;;;24.05;;
36925;SDS011;22842;48.610;11.612;2022-12-18T04:25:50;72.40;;;27.50;;
36925;SDS011;22842;48.610;11.612;2022-12-18T04:28:17;61.83;;;22.55;;
36925;SDS011;22842;48.610;11.612;2022-12-18T04:30:45;72.72;;;24.45;;
36925;SDS011;22842;48.610;11.612;2022-12-18T04:33:13;61.10;;;23.15;;
36925;SDS011;22842;48.610;11.612;2022-12-18T04:35:41;60.13;;;22.98;;
36925;SDS011;22842;48.610;11.612;2022-12-18T04:38:09;64.72;;;24.70;;
36925;SDS011;22842;48.610;11.612;2022-12-18T04:40:37;62.80;;;24.15;;
36925;SDS011;22842;48.610;11.612;2022-12-18T04:43:06;61.17;;;23.02;;
36925;SDS011;22842;48.610;11.612;2022-12-18T04:45:34;69.90;;;23.75;;
36925;SDS011;22842;48.610;11.612;2022-12-18T04:48:02;72.40;;;24.58;;
36925;SDS011;22842;48.610;11.612;2022-12-18T04:50:30;63.60;;;23.58;;
36925;SDS011;22842;48.610;11.612;2022-12-18T04:52:57;61.75;;;23.23;;
36925;SDS011;22842;48.610;11.612;2022-12-18T04:55:25;63.53;;;24.25;;
36925;SDS011;22842;48.610;11.612;2022-12-18T04:57:52;62.80;;;22.80;;
36925;SDS011;22842;48.610;11.612;2022-12-18T05:00:20;61.25;;;22.60;;
36925;SDS011;22842;48.610;11.612;2022-12-18T05:02:48;76.47;;;29.25;;
36925;SDS011;22842;48.610;11.612;2022-12-18T05:05:16;66.93;;;23.88;;
36925;SDS011;22842;48.610;11.612;2022-12-18T05:07:43;59.15;;;22.00;;
36925;SDS011;22842;48.610;11.612;2022-12-18T05:10:11;58.85;;;20.77;;
36925;SDS011;22842;48.610;11.612;2022-12-18T05:12:38;60.30;;;21.42;;
36925;SDS011;22842;48.610;11.612;2022-12-18T05:15:26;57.83;;;20.40;;
36925;SDS011;22842;48.610;11.612;2022-12-18T05:17:55;57.20;;;21.95;;
36925;SDS011;22842;48.610;11.612;2022-12-18T05:20:23;53.80;;;20.80;;
36925;SDS011;22842;48.610;11.612;2022-12-18T05:22:51;49.40;;;19.80;;
36925;SDS011;22842;48.610;11.612;2022-12-18T05:25:19;49.03;;;19.65;;
36925;SDS011;22842;48.610;11.612;2022-12-18T05:27:46;54.50;;;21.30;;
36925;SDS011;22842;48.610;11.612;2022-12-18T05:30:14;56.83;;;22.70;;
36925;SDS011;22842;48.610;11.612;2022-12-18T05:32:42;63.75;;;26.15;;
36925;SDS011;22842;48.610;11.612;2022-12-18T05:35:10;65.40;;;25.33;;
36925;SDS011;22842;48.610;11.612;2022-12-18T05:37:38;61.33;;;23.27;;
36925;SDS011;22842;48.610;11.612;2022-12-18T05:40:09;62.95;;;22.83;;
36925;SDS011;22842;48.610;11.612;2022-12-18T05:42:36;64.32;;;22.05;;
36925;SDS011;22842;48.610;11.612;2022-12-18T05:45:04;65.30;;;26.98;;
36925;SDS011;22842;48.610;11.612;2022-12-18T05:47:32;60.55;;;22.55;;
36925;SDS011;22842;48.610;11.612;2022-12-18T05:49:59;55.78;;;21.23;;
36925;SDS011;22842;48.610;11.612;2022-12-18T05:52:26;70.55;;;28.77;;
36925;SDS011;22842;48.610;11.612;2022-12-18T05:54:54;64.63;;;22.15;;
36925;SDS011;22842;48.610;11.612;2022-12-18T05:57:21;61.85;;;21.65;;
36925;SDS011;22842;48.610;11.612;2022-12-18T05:59:49;56.53;;;21.10;;
36925;SDS011;22842;48.610;11.612;2022-12-18T06:02:18;51.13;;;22.23;;
36925;SDS011;22842;48.610;11.612;2022-12-18T06:04:47;60.25;;;21.70;;
36925;SDS011;22842;48.610;11.612;2022-12-18T06:07:15;53.90;;;20.40;;
36925;SDS011;22842;48.610;11.612;2022-12-18T06:09:42;57.53;;;21.10;;
36925;SDS011;22842;48.610;11.612;2022-12-18T06:12:09;54.15;;;22.40;;
36925;SDS011;22842;48.610;11.612;2022-12-18T06:14:37;61.63;;;25.35;;
36925;SDS011;22842;48.610;11.612;2022-12-18T06:17:05;54.15;;;21.70;;
36925;SDS011;22842;48.610;11.612;2022-12-18T06:19:32;49.38;;;19.83;;
36925;SDS011;22842;48.610;11.612;2022-12-18T06:22:00;51.78;;;21.67;;
36925;SDS011;22842;48.610;11.612;2022-12-18T06:24:27;47.22;;;18.75;;
36925;SDS011;22842;48.610;11.612;2022-12-18T06:26:55;53.47;;;20.90;;
36925;SDS011;22842;48.610;11.612;2022-12-18T06:29:22;50.25;;;19.00;;
36925;SDS011;22842;48.610;11.612;2022-12-18T06:31:50;48.72;;;19.52;;
36925;SDS011;22842;48.610;11.612;2022-12-18T06:34:17;46.55;;;18.63;;
36925;SDS011;22842;48.610;11.612;2022-12-18T06:36:45;51.55;;;19.67;;
36925;SDS011;22842;48.610;11.612;2022-12-18T06:39:12;45.92;;;17.70;;
36925;SDS011;22842;48.610;11.612;2022-12-18T06:41:40;47.53;;;20.08;;
36925;SDS011;22842;48.610;11.612;2022-12-18T06:44:08;56.88;;;21.40;;
36925;SDS011;22842;48.610;11.612;2022-12-18T06:46:36;52.30;;;21.10;;
36925;SDS011;22842;48.610;11.612;2022-12-18T06:49:04;55.00;;;20.70;;
36925;SDS011;22842;48.610;11.612;2022-12-18T06:51:31;53.55;;;21.52;;
36925;SDS011;22842;48.610;11.612;2022-12-18T06:53:59;53.92;;;20.92;;
36925;SDS011;22842;48.610;11.612;2022-12-18T06:56:26;55.47;;;22.35;;
36925;SDS011;22842;48.610;11.612;2022-12-18T06:58:54;61.58;;;24.80;;
36925;SDS011;22842;48.610;11.612;2022-12-18T07:01:21;51.42;;;19.65;;
36925;SDS011;22842;48.610;11.612;2022-12-18T07:03:53;55.10;;;23.10;;
36925;SDS011;22842;48.610;11.612;2022-12-18T07:06:22;60.40;;;24.92;;
36925;SDS011;22842;48.610;11.612;2022-12-18T07:08:50;57.47;;;25.67;;
36925;SDS011;22842;48.610;11.612;2022-12-18T07:11:17;50.85;;;19.08;;
36925;SDS011;22842;48.610;11.612;2022-12-18T07:13:45;57.35;;;24.10;;
36925;SDS011;22842;48.610;11.612;2022-12-18T07:18:49;37.53;;;15.00;;
36925;SDS011;22842;48.610;11.612;2022-12-18T07:21:17;46.42;;;20.58;;
36925;SDS011;22842;48.610;11.612;2022-12-18T07:23:45;38.55;;;16.13;;
36925;SDS011;22842;48.610;11.612;2022-12-18T07:26:15;54.15;;;19.83;;
36925;SDS011;22842;48.610;11.612;2022-12-18T07:28:44;51.40;;;21.90;;
36925;SDS011;22842;48.610;11.612;2022-12-18T07:31:12;48.40;;;20.55;;
36925;SDS011;22842;48.610;11.612;2022-12-18T07:33:41;54.72;;;21.63;;
36925;SDS011;22842;48.610;11.612;2022-12-18T07:36:09;50.78;;;20.23;;
36925;SDS011;22842;48.610;11.612;2022-12-18T07:38:37;48.97;;;20.52;;
36925;SDS011;22842;48.610;11.612;2022-12-18T07:41:09;53.45;;;21.75;;
36925;SDS011;22842;48.610;11.612;2022-12-18T07:43:37;42.55;;;17.50;;
36925;SDS011;22842;48.610;11.612;2022-12-18T07:46:07;52.10;;;20.42;;
36925;SDS011;22842;48.610;11.612;2022-12-18T07:48:34;49.03;;;23.15;;
36925;SDS011;22842;48.610;11.612;2022-12-18T07:51:03;64.40;;;28.25;;
36925;SDS011;22842;48.610;11.612;2022-12-18T07:53:32;47.00;;;19.45;;
36925;SDS011;22842;48.610;11.612;2022-12-18T07:56:01;46.88;;;19.70;;
36925;SDS011;22842;48.610;11.612;2022-12-18T07:58:48;48.05;;;18.85;;
36925;SDS011;22842;48.610;11.612;2022-12-18T08:01:16;43.47;;;18.45;;
36925;SDS011;22842;48.610;11.612;2022-12-18T08:03:44;61.72;;;24.52;;
36925;SDS011;22842;48.610;11.612;2022-12-18T08:06:13;55.80;;;22.98;;
36925;SDS011;22842;48.610;11.612;2022-12-18T08:08:40;53.45;;;24.80;;
36925;SDS011;22842;48.610;11.612;2022-12-18T08:11:08;77.00;;;34.63;;
36925;SDS011;22842;48.610;11.612;2022-12-18T08:13:36;68.35;;;26.45;;
36925;SDS011;22842;48.610;11.612;2022-12-18T08:16:05;77.22;;;33.60;;
36925;SDS011;22842;48.610;11.612;2022-12-18T08:18:34;70.05;;;30.92;;
36925;SDS011;22842;48.610;11.612;2022-12-18T08:21:15;47.63;;;19.80;;
36925;SDS011;22842;48.610;11.612;2022-12-18T08:23:43;49.45;;;21.05;;
36925;SDS011;22842;48.610;11.612;2022-12-18T08:26:11;56.88;;;25.75;;
36925;SDS011;22842;48.610;11.612;2022-12-18T08:28:40;45.70;;;20.40;;
36925;SDS011;22842;48.610;11.612;2022-12-18T08:31:08;49.72;;;22.25;;
36925;SDS011;22842;48.610;11.612;2022-12-18T08:33:36;55.67;;;23.45;;
36925;SDS011;22842;48.610;11.612;2022-12-18T08:36:05;53.95;;;23.13;;
36925;SDS011;22842;48.610;11.612;2022-12-18T08:38:33;50.33;;;21.63;;
36925;SDS011;22842;48.610;11.612;2022-12-18T08:41:01;53.50;;;23.25;;
36925;SDS011;22842;48.610;11.612;2022-12-18T08:43:28;54.60;;;23.60;;
36925;SDS011;22842;48.610;11.612;2022-12-18T08:46:15;47.47;;;20.27;;
36925;SDS011;22842;48.610;11.612;2022-12-18T08:48:43;50.47;;;20.88;;
36925;SDS011;22842;48.610;11.612;2022-12-18T08:51:10;52.22;;;19.48;;
36925;SDS011;22842;48.610;11.612;2022-12-18T08:53:38;48.33;;;20.73;;
36925;SDS011;22842;48.610;11.612;2022-12-18T08:56:07;49.95;;;21.63;;
36925;SDS011;22842;48.610;11.612;2022-12-18T08:58:34;44.72;;;18.88;;
36925;SDS011;22842;48.610;11.612;2022-12-18T09:01:12;51.78;;;20.85;;
36925;SDS011;22842;48.610;11.612;2022-12-18T09:03:40;53.25;;;21.75;;
36925;SDS011;22842;48.610;11.612;2022-12-18T09:06:09;50.00;;;20.02;;
36925;SDS011;22842;48.610;11.612;2022-12-18T09:08:41;45.30;;;17.20;;
36925;SDS011;22842;48.610;11.612;2022-12-18T09:11:19;47.05;;;20.08;;
36925;SDS011;22842;48.610;11.612;2022-12-18T09:13:47;50.08;;;20.40;;
36925;SDS011;22842;48.610;11.612;2022-12-18T09:16:15;47.75;;;20.65;;
36925;SDS011;22842;48.610;11.612;2022-12-18T09:18:42;50.30;;;21.10;;
36925;SDS011;22842;48.610;11.612;2022-12-18T09:21:15;46.80;;;21.17;;
36925;SDS011;22842;48.610;11.612;2022-12-18T09:23:43;48.38;;;21.55;;
36925;SDS011;22842;48.610;11.612;2022-12-18T09:26:10;50.03;;;21.58;;
36925;SDS011;22842;48.610;11.612;2022-12-18T09:28:38;48.55;;;21.30;;
36925;SDS011;22842;48.610;11.612;2022-12-18T09:31:07;46.67;;;20.60;;
36925;SDS011;22842;48.610;11.612;2022-12-18T09:33:35;48.17;;;21.17;;
36925;SDS011;22842;48.610;11.612;2022-12-18T09:36:04;47.10;;;19.88;;
36925;SDS011;22842;48.610;11.612;2022-12-18T09:38:32;52.63;;;20.85;;
36925;SDS011;22842;48.610;11.612;2022-12-18T09:41:03;48.85;;;20.27;;
36925;SDS011;22842;48.610;11.612;2022-12-18T09:43:48;45.53;;;20.60;;
36925;SDS011;22842;48.610;11.612;2022-12-18T09:46:22;48.13;;;19.45;;
36925;SDS011;22842;48.610;11.612;2022-12-18T09:48:52;48.80;;;20.17;;
36925;SDS011;22842;48.610;11.612;2022-12-18T09:51:22;46.65;;;20.67;;
36925;SDS011;22842;48.610;11.612;2022-12-18T09:54:14;51.80;;;22.83;;
36925;SDS011;22842;48.610;11.612;2022-12-18T09:56:40;43.92;;;19.35;;
36925;SDS011;22842;48.610;11.612;2022-12-18T09:59:23;39.38;;;18.70;;
36925;SDS011;22842;48.610;11.612;2022-12-18T10:01:51;36.70;;;17.38;;
36925;SDS011;22842;48.610;11.612;2022-12-18T10:04:19;43.00;;;17.70;;
36925;SDS011;22842;48.610;11.612;2022-12-18T10:10:18;38.40;;;17.52;;
36925;SDS011;22842;48.610;11.612;2022-12-18T10:20:02;28.70;;;14.27;;
36925;SDS011;22842;48.610;11.612;2022-12-18T10:22:38;36.00;;;16.73;;
36925;SDS011;22842;48.610;11.612;2022-12-18T10:27:44;39.30;;;17.80;;
36925;SDS011;22842;48.610;11.612;2022-12-18T10:30:12;40.95;;;18.13;;
36925;SDS011;22842;48.610;11.612;2022-12-18T10:32:40;32.22;;;16.65;;
36925;SDS011;22842;48.610;11.612;2022-12-18T10:35:14;37.92;;;16.63;;
36925;SDS011;22842;48.610;11.612;2022-12-18T10:42:45;34.63;;;17.08;;
36925;SDS011;22842;48.610;11.612;2022-12-18T10:45:14;35.55;;;17.38;;
36925;SDS011;22842;48.610;11.612;2022-12-18T10:47:46;41.17;;;17.42;;
36925;SDS011;22842;48.610;11.612;2022-12-18T10:50:19;45.17;;;18.85;;
36925;SDS011;22842;48.610;11.612;2022-12-18T10:52:52;37.92;;;17.67;;
36925;SDS011;22842;48.610;11.612;2022-12-18T10:55:21;37.20;;;18.67;;
36925;SDS011;22842;48.610;11.612;2022-12-18T10:57:49;41.75;;;18.90;;
36925;SDS011;22842;48.610;11.612;2022-12-18T11:00:21;39.97;;;18.13;;
36925;SDS011;22842;48.610;11.612;2022-12-18T11:02:50;42.10;;;19.17;;
36925;SDS011;22842;48.610;11.612;2022-12-18T11:05:29;41.75;;;19.17;;
36925;SDS011;22842;48.610;11.612;2022-12-18T11:07:58;36.60;;;17.33;;
36925;SDS011;22842;48.610;11.612;2022-12-18T11:10:46;38.20;;;17.90;;
36925;SDS011;22842;48.610;11.612;2022-12-18T11:13:17;34.03;;;17.08;;
36925;SDS011;22842;48.610;11.612;2022-12-18T11:15:45;32.38;;;16.48;;
36925;SDS011;22842;48.610;11.612;2022-12-18T11:18:47;38.95;;;15.77;;
36925;SDS011;22842;48.610;11.612;2022-12-18T11:21:09;42.08;;;18.55;;
36925;SDS011;22842;48.610;11.612;2022-12-18T11:23:37;39.13;;;17.90;;
36925;SDS011;22842;48.610;11.612;2022-12-18T11:26:11;27.67;;;11.45;;
36925;SDS011;22842;48.610;11.612;2022-12-18T11:28:45;36.20;;;18.08;;
36925;SDS011;22842;48.610;11.612;2022-12-18T11:33:50;35.67;;;16.77;;
36925;SDS011;22842;48.610;11.612;2022-12-18T11:36:47;35.80;;;16.95;;
36925;SDS011;22842;48.610;11.612;2022-12-18T11:39:19;40.03;;;18.65;;
36925;SDS011;22842;48.610;11.612;2022-12-18T11:47:26;46.40;;;18.90;;
36925;SDS011;22842;48.610;11.612;2022-12-18T11:49:56;36.17;;;17.67;;
36925;SDS011;22842;48.610;11.612;2022-12-18T11:52:28;34.85;;;16.58;;
36925;SDS011;22842;48.610;11.612;2022-12-18T11:55:00;40.72;;;18.77;;
36925;SDS011;22842;48.610;11.612;2022-12-18T11:57:34;36.40;;;17.45;;
36925;SDS011;22842;48.610;11.612;2022-12-18T12:00:19;35.78;;;17.33;;
36925;SDS011;22842;48.610;11.612;2022-12-18T12:06:17;38.17;;;17.15;;
36925;SDS011;22842;48.610;11.612;2022-12-18T12:08:32;39.65;;;18.48;;
36925;SDS011;22842;48.610;11.612;2022-12-18T12:11:16;36.65;;;17.55;;
36925;SDS011;22842;48.610;11.612;2022-12-18T12:27:16;42.53;;;20.30;;
36925;SDS011;22842;48.610;11.612;2022-12-18T12:40:30;65.47;;;31.88;;
36925;SDS011;22842;48.610;11.612;2022-12-18T12:48:27;41.88;;;21.33;;
36925;SDS011;22842;48.610;11.612;2022-12-18T12:51:00;41.03;;;20.05;;
36925;SDS011;22842;48.610;11.612;2022-12-18T12:53:30;39.92;;;19.38;;
36925;SDS011;22842;48.610;11.612;2022-12-18T12:56:01;58.33;;;27.20;;
36925;SDS011;22842;48.610;11.612;2022-12-18T13:06:53;41.28;;;17.88;;
36925;SDS011;22842;48.610;11.612;2022-12-18T13:09:21;40.58;;;18.83;;
36925;SDS011;22842;48.610;11.612;2022-12-18T13:11:49;35.17;;;17.80;;
36925;SDS011;22842;48.610;11.612;2022-12-18T13:14:36;41.28;;;17.83;;
36925;SDS011;22842;48.610;11.612;2022-12-18T13:20:08;38.33;;;19.13;;
36925;SDS011;22842;48.610;11.612;2022-12-18T13:22:38;50.83;;;25.38;;
36925;SDS011;22842;48.610;11.612;2022-12-18T13:28:15;50.35;;;24.95;;
36925;SDS011;22842;48.610;11.612;2022-12-18T13:45:49;39.00;;;18.73;;
36925;SDS011;22842;48.610;11.612;2022-12-18T13:48:18;40.80;;;18.65;;
36925;SDS011;22842;48.610;11.612;2022-12-18T13:50:52;43.47;;;19.63;;
36925;SDS011;22842;48.610;11.612;2022-12-18T13:53:21;42.83;;;18.10;;
36925;SDS011;22842;48.610;11.612;2022-12-18T13:55:50;42.90;;;17.92;;
36925;SDS011;22842;48.610;11.612;2022-12-18T13:58:18;37.13;;;16.90;;
36925;SDS011;22842;48.610;11.612;2022-12-18T14:00:46;36.45;;;18.20;;
36925;SDS011;22842;48.610;11.612;2022-12-18T14:03:19;38.13;;;17.08;;
36925;SDS011;22842;48.610;11.612;2022-12-18T14:06:05;31.35;;;15.50;;
36925;SDS011;22842;48.610;11.612;2022-12-18T14:08:36;37.65;;;16.60;;
36925;SDS011;22842;48.610;11.612;2022-12-18T14:11:05;33.10;;;16.45;;
36925;SDS011;22842;48.610;11.612;2022-12-18T14:13:37;39.67;;;17.67;;
36925;SDS011;22842;48.610;11.612;2022-12-18T14:16:05;37.10;;;17.98;;
36925;SDS011;22842;48.610;11.612;2022-12-18T14:18:48;50.13;;;19.88;;
36925;SDS011;22842;48.610;11.612;2022-12-18T14:23:45;39.38;;;18.52;;
36925;SDS011;22842;48.610;11.612;2022-12-18T14:26:20;37.95;;;17.08;;
36925;SDS011;22842;48.610;11.612;2022-12-18T14:28:48;42.60;;;19.63;;
36925;SDS011;22842;48.610;11.612;2022-12-18T14:31:23;41.22;;;19.88;;
36925;SDS011;22842;48.610;11.612;2022-12-18T14:33:51;40.53;;;18.88;;
36925;SDS011;22842;48.610;11.612;2022-12-18T14:36:23;42.10;;;18.40;;
36925;SDS011;22842;48.610;11.612;2022-12-18T14:38:55;46.58;;;19.90;;
36925;SDS011;22842;48.610;11.612;2022-12-18T14:41:26;44.17;;;18.73;;
36925;SDS011;22842;48.610;11.612;2022-12-18T14:43:55;39.22;;;17.85;;
36925;SDS011;22842;48.610;11.612;2022-12-18T14:49:01;38.53;;;18.25;;
36925;SDS011;22842;48.610;11.612;2022-12-18T14:51:30;40.13;;;17.35;;
36925;SDS011;22842;48.610;11.612;2022-12-18T14:53:58;40.60;;;16.90;;
36925;SDS011;22842;48.610;11.612;2022-12-18T14:56:31;39.30;;;17.40;;
36925;SDS011;22842;48.610;11.612;2022-12-18T15:03:54;40.50;;;17.40;;
36925;SDS011;22842;48.610;11.612;2022-12-18T15:06:30;36.40;;;16.88;;
36925;SDS011;22842;48.610;11.612;2022-12-18T15:08:59;38.70;;;16.13;;
36925;SDS011;22842;48.610;11.612;2022-12-18T15:11:28;35.13;;;16.45;;
36925;SDS011;22842;48.610;11.612;2022-12-18T15:13:57;37.50;;;16.42;;
36925;SDS011;22842;48.610;11.612;2022-12-18T15:16:26;41.35;;;17.13;;
36925;SDS011;22842;48.610;11.612;2022-12-18T15:18:53;39.22;;;18.13;;
36925;SDS011;22842;48.610;11.612;2022-12-18T15:21:21;41.38;;;19.35;;
36925;SDS011;22842;48.610;11.612;2022-12-18T15:23:49;41.65;;;18.60;;
36925;SDS011;22842;48.610;11.612;2022-12-18T15:26:19;45.30;;;18.73;;
36925;SDS011;22842;48.610;11.612;2022-12-18T15:28:48;38.40;;;16.77;;
36925;SDS011;22842;48.610;11.612;2022-12-18T15:36:19;40.40;;;18.33;;
36925;SDS011;22842;48.610;11.612;2022-12-18T15:38:53;39.85;;;17.92;;
36925;SDS011;22842;48.610;11.612;2022-12-18T15:41:30;34.25;;;16.88;;
36925;SDS011;22842;48.610;11.612;2022-12-18T15:44:01;36.47;;;17.77;;
36925;SDS011;22842;48.610;11.612;2022-12-18T15:46:29;43.40;;;19.58;;
36925;SDS011;22842;48.610;11.612;2022-12-18T15:48:57;39.33;;;17.63;;
36925;SDS011;22842;48.610;11.612;2022-12-18T15:51:32;36.60;;;17.90;;
36925;SDS011;22842;48.610;11.612;2022-12-18T15:54:01;52.33;;;20.55;;
36925;SDS011;22842;48.610;11.612;2022-12-18T15:56:30;40.65;;;18.20;;
36925;SDS011;22842;48.610;11.612;2022-12-18T15:59:17;36.03;;;17.10;;
36925;SDS011;22842;48.610;11.612;2022-12-18T16:01:49;45.83;;;19.38;;
36925;SDS011;22842;48.610;11.612;2022-12-18T16:04:20;39.28;;;17.63;;
36925;SDS011;22842;48.610;11.612;2022-12-18T16:06:48;37.88;;;17.88;;
36925;SDS011;22842;48.610;11.612;2022-12-18T16:09:36;36.33;;;16.23;;
36925;SDS011;22842;48.610;11.612;2022-12-18T16:12:06;32.95;;;15.02;;
36925;SDS011;22842;48.610;11.612;2022-12-18T16:14:34;37.55;;;17.10;;
36925;SDS011;22842;48.610;11.612;2022-12-18T16:17:03;40.08;;;17.00;;
36925;SDS011;22842;48.610;11.612;2022-12-18T16:19:33;39.05;;;18.27;;
36925;SDS011;22842;48.610;11.612;2022-12-18T16:22:00;35.03;;;16.33;;
36925;SDS011;22842;48.610;11.612;2022-12-18T16:24:29;39.65;;;17.88;;
36925;SDS011;22842;48.610;11.612;2022-12-18T16:26:59;40.70;;;18.77;;
36925;SDS011;22842;48.610;11.612;2022-12-18T16:29:28;40.42;;;17.92;;
36925;SDS011;22842;48.610;11.612;2022-12-18T16:31:56;40.05;;;18.45;;
36925;SDS011;22842;48.610;11.612;2022-12-18T16:34:25;38.45;;;17.77;;
36925;SDS011;22842;48.610;11.612;2022-12-18T16:36:55;59.08;;;27.27;;
36925;SDS011;22842;48.610;11.612;2022-12-18T16:39:30;43.88;;;17.98;;
36925;SDS011;22842;48.610;11.612;2022-12-18T16:42:00;38.38;;;17.67;;
36925;SDS011;22842;48.610;11.612;2022-12-18T16:44:31;43.13;;;17.38;;
36925;SDS011;22842;48.610;11.612;2022-12-18T16:46:58;37.70;;;17.95;;